Time;durP1;ratioP1;P1;durP2;ratioP2;P2;SDS_P1;SDS_P2;PMS_P1;PMS_P2;Temp;Humidity;BMP_temperature;BMP_pressure;BME280_temperature;BME280_humidity;BME280_pressure;Samples;Min_cycle;Max_cycle;Signal;HPM_P1;HPM_P2
2022/12/20 00:01:16;;;;;;;4.70;2.97;;;;;;;8.47;100.00;101388.94;5013580;28;20149;-81
2022/12/20 00:03:43;;;;;;;5.35;3.10;;;;;;;8.47;100.00;101396.75;5013042;28;20073;-81
2022/12/20 00:06:09;;;;;;;4.85;3.17;;;;;;;8.43;100.00;101385.47;5015086;28;20026;-81
2022/12/20 00:08:35;;;;;;;4.15;2.97;;;;;;;8.47;100.00;101406.25;5014881;28;20029;-79
2022/12/20 00:11:03;;;;;;;5.78;2.83;;;;;;;8.52;100.00;101392.34;5014319;28;20210;-79
2022/12/20 00:13:29;;;;;;;5.70;3.25;;;;;;;8.60;100.00;101400.09;5015011;28;20086;-81
2022/12/20 00:16:14;;;;;;;5.32;2.97;;;;;;;8.66;100.00;101384.47;5012983;28;20022;-81
2022/12/20 00:18:40;;;;;;;6.20;3.08;;;;;;;8.74;100.00;101382.69;5004178;28;20072;-81
2022/12/20 00:21:08;;;;;;;5.65;2.88;;;;;;;8.75;100.00;101373.16;5014168;28;20100;-81
2022/12/20 00:23:34;;;;;;;5.22;3.33;;;;;;;8.83;100.00;101377.44;5010549;28;20113;-81
2022/12/20 00:26:07;;;;;;;5.30;3.17;;;;;;;8.85;100.00;101377.41;5011848;28;20114;-82
2022/12/20 00:28:34;;;;;;;5.80;3.00;;;;;;;8.89;100.00;101381.69;5014190;28;20255;-81
2022/12/20 00:31:00;;;;;;;6.47;3.40;;;;;;;8.87;100.00;101371.31;5019847;28;20060;-81
2022/12/20 00:33:26;;;;;;;6.50;3.17;;;;;;;8.84;100.00;101368.75;5012514;28;20039;-81
2022/12/20 00:35:53;;;;;;;6.15;3.42;;;;;;;8.85;100.00;101373.06;5014355;28;20374;-81
2022/12/20 00:38:18;;;;;;;10.85;3.33;;;;;;;8.82;100.00;101367.03;5014078;28;20079;-82
2022/12/20 00:40:44;;;;;;;5.10;3.42;;;;;;;8.95;100.00;101359.97;5021034;28;20168;-81
2022/12/20 00:43:09;;;;;;;7.55;3.70;;;;;;;8.93;100.00;101354.81;5029518;28;20041;-81
2022/12/20 00:45:34;;;;;;;4.93;3.28;;;;;;;8.98;100.00;101352.16;5014310;28;20034;-82
2022/12/20 00:48:00;;;;;;;4.78;2.97;;;;;;;9.07;100.00;101349.47;5013920;28;20105;-81
2022/12/20 00:50:25;;;;;;;5.95;3.60;;;;;;;9.14;100.00;101354.59;5013923;28;20052;-81
2022/12/20 00:52:50;;;;;;;7.07;3.20;;;;;;;9.20;100.00;101360.63;5013928;28;20454;-82
2022/12/20 00:55:16;;;;;;;5.70;3.28;;;;;;;9.17;100.00;101358.94;5012661;28;20022;-82
2022/12/20 00:57:41;;;;;;;7.22;3.80;;;;;;;9.26;100.00;101361.44;5017361;28;20044;-81
2022/12/20 01:00:07;;;;;;;6.65;3.80;;;;;;;9.27;100.00;101352.75;5020967;28;20076;-82
2022/12/20 01:02:32;;;;;;;6.00;3.70;;;;;;;9.21;100.00;101357.16;5013971;28;20026;-82
2022/12/20 01:04:58;;;;;;;7.78;3.60;;;;;;;9.07;100.00;101342.53;5015894;28;20022;-82
2022/12/20 01:07:23;;;;;;;9.85;4.10;;;;;;;8.95;100.00;101342.63;5011348;28;20033;-82
2022/12/20 01:09:49;;;;;;;7.68;3.63;;;;;;;8.71;100.00;101355.84;5012434;28;20112;-83
2022/12/20 01:12:14;;;;;;;8.43;4.07;;;;;;;8.63;100.00;101364.56;5018073;28;20068;-83
2022/12/20 01:14:40;;;;;;;8.70;4.07;;;;;;;8.50;100.00;101373.34;5012553;28;20041;-82
2022/12/20 01:17:05;;;;;;;10.98;4.43;;;;;;;8.41;100.00;101365.59;5013130;28;20359;-82
2022/12/20 01:19:31;;;;;;;8.63;4.00;;;;;;;8.38;100.00;101370.81;5011247;28;20030;-82
2022/12/20 01:21:56;;;;;;;9.02;4.47;;;;;;;8.35;100.00;101369.03;5012206;28;20045;-83
2022/12/20 01:24:21;;;;;;;8.75;4.20;;;;;;;8.30;100.00;101344.81;5012591;28;20046;-85
2022/12/20 01:26:47;;;;;;;10.57;5.25;;;;;;;8.26;100.00;101361.28;5013183;28;20034;-84
2022/12/20 01:29:13;;;;;;;10.40;5.15;;;;;;;8.21;100.00;101366.53;5017507;28;20045;-84
2022/12/20 01:31:38;;;;;;;8.18;5.00;;;;;;;8.19;100.00;101367.41;5012875;28;20023;-85
2022/12/20 01:34:04;;;;;;;9.32;4.53;;;;;;;8.16;100.00;101378.66;5023652;28;20040;-84
2022/12/20 01:36:33;;;;;;;11.93;5.03;;;;;;;8.15;100.00;101360.50;5013543;28;20066;-85
2022/12/20 01:39:01;;;;;;;9.65;4.53;;;;;;;8.12;100.00;101351.00;5013509;28;20104;-85
2022/12/20 01:41:29;;;;;;;11.85;5.13;;;;;;;8.13;100.00;101352.72;5012814;28;20111;-85
2022/12/20 01:43:59;;;;;;;11.80;5.63;;;;;;;8.10;100.00;101342.34;5007444;28;20037;-86
2022/12/20 01:46:27;;;;;;;8.85;5.22;;;;;;;8.11;100.00;101343.19;5007543;28;20080;-85
2022/12/20 01:48:58;;;;;;;9.80;5.60;;;;;;;8.05;100.00;101341.50;5014083;28;20109;-85
2022/12/20 01:51:25;;;;;;;11.50;5.38;;;;;;;8.10;100.00;101339.75;5012593;28;20061;-84
2022/12/20 01:53:56;;;;;;;10.70;5.80;;;;;;;8.09;100.00;101314.66;5019528;28;20022;-84
2022/12/20 01:56:22;;;;;;;10.50;5.85;;;;;;;8.10;100.00;101328.50;4999958;28;20496;-84
2022/12/20 01:58:51;;;;;;;12.48;6.28;;;;;;;8.02;100.00;101307.78;5025767;28;20053;-85
2022/12/20 02:01:17;;;;;;;10.90;5.72;;;;;;;8.09;100.00;101326.78;5018375;28;20021;-85
2022/12/20 02:03:43;;;;;;;13.18;6.00;;;;;;;8.02;100.00;101310.38;5021334;28;20080;-85
2022/12/20 02:06:17;;;;;;;11.48;5.85;;;;;;;8.06;100.00;101321.59;5013182;28;20104;-85
2022/12/20 02:08:45;;;;;;;14.18;5.90;;;;;;;8.06;100.00;101330.25;5012634;28;20022;-85
2022/12/20 02:11:22;;;;;;;11.40;6.22;;;;;;;8.06;100.00;101322.44;5011338;28;20029;-85
2022/12/20 02:14:21;;;;;;;11.23;4.97;;;;;;;8.03;100.00;101316.41;5010134;28;20026;-85
2022/12/20 02:16:55;;;;;;;9.55;5.70;;;;;;;7.98;100.00;101301.72;5007702;28;20393;-86
2022/12/20 02:19:45;;;;;;;9.50;5.00;;;;;;;8.02;100.00;101296.53;5006704;28;20026;-85
2022/12/20 02:22:34;;;;;;;6.88;5.18;;;;;;;8.01;100.00;101293.06;5000830;28;20425;-85
2022/12/20 02:25:15;;;;;;;6.68;5.00;;;;;;;7.98;100.00;101280.09;5022485;28;20045;-85
2022/12/20 02:28:12;;;;;;;7.82;4.45;;;;;;;7.90;100.00;101280.13;5011698;28;20392;-86
2022/12/20 02:30:43;;;;;;;8.95;4.95;;;;;;;7.80;100.00;101280.19;4969697;28;20041;-85
2022/12/20 02:33:11;;;;;;;8.40;4.93;;;;;;;7.85;100.00;101294.03;5022346;28;20109;-85
2022/12/20 02:35:38;;;;;;;8.57;4.53;;;;;;;7.84;100.00;101281.91;5011636;28;20022;-85
2022/12/20 02:38:23;;;;;;;5.85;4.95;;;;;;;7.83;100.00;101275.84;5015179;28;20072;-85
2022/12/20 02:40:52;;;;;;;6.13;4.32;;;;;;;7.81;100.00;101277.56;5010385;28;20052;-85
2022/12/20 02:46:04;;;;;;;6.78;4.18;;;;;;;7.81;100.00;101274.13;5025333;28;20049;-85
2022/12/20 02:48:32;;;;;;;7.38;4.65;;;;;;;7.80;100.00;101280.19;5016571;28;20460;-85
2022/12/20 02:51:01;;;;;;;6.30;3.70;;;;;;;7.84;100.00;101276.69;5015861;28;20026;-84
2022/12/20 02:53:28;;;;;;;6.60;4.22;;;;;;;7.86;100.00;101269.78;5026803;28;20032;-85
2022/12/20 02:55:57;;;;;;;5.53;4.43;;;;;;;7.87;100.00;101267.16;5018755;28;20036;-85
2022/12/20 02:58:30;;;;;;;7.53;4.80;;;;;;;7.83;100.00;101264.59;5015879;28;20026;-85
2022/12/20 03:00:58;;;;;;;;;;;;;;;7.83;100.00;101269.78;5016181;28;20041;-85
2022/12/20 03:03:23;;;;;;;4.78;4.13;;;;;;;7.84;100.00;101256.78;5016404;28;19913;-85
2022/12/20 03:05:54;;;;;;;7.03;3.95;;;;;;;7.87;100.00;101274.09;5015706;28;20040;-85
2022/12/20 03:08:21;;;;;;;9.50;3.92;;;;;;;7.86;100.00;101267.19;5016174;28;20034;-85
2022/12/20 03:10:47;;;;;;;6.65;4.10;;;;;;;7.86;100.00;101273.22;5015488;28;20026;-85
2022/12/20 03:13:13;;;;;;;5.68;3.97;;;;;;;7.90;100.00;101274.06;5015344;28;20026;-85
2022/12/20 03:15:38;;;;;;;5.95;3.97;;;;;;;7.92;100.00;101277.53;5023124;28;20492;-85
2022/12/20 03:18:03;;;;;;;4.80;3.90;;;;;;;7.85;100.00;101258.53;5013369;28;20057;-85
2022/12/20 03:20:29;;;;;;;7.93;4.10;;;;;;;7.92;100.00;101264.56;5016667;28;20061;-85
2022/12/20 03:22:54;;;;;;;4.88;3.45;;;;;;;7.98;100.00;101255.00;5017569;28;20056;-86
2022/12/20 03:25:19;;;;;;;4.82;3.50;;;;;;;7.95;100.00;101256.75;5017240;28;20029;-85
2022/12/20 03:27:45;;;;;;;7.75;3.75;;;;;;;7.89;100.00;101246.41;5015659;28;20428;-85
2022/12/20 03:30:11;;;;;;;6.15;3.60;;;;;;;7.98;100.00;101257.59;5026965;23;20524;-85
2022/12/20 03:32:36;;;;;;;7.03;3.72;;;;;;;8.04;100.00;101254.06;5035148;28;20063;-85
2022/12/20 03:35:01;;;;;;;5.55;3.67;;;;;;;8.08;100.00;101254.94;5031682;28;20464;-85
2022/12/20 03:37:27;;;;;;;4.82;3.60;;;;;;;8.17;100.00;101260.94;5033573;28;20051;-85
2022/12/20 03:39:52;;;;;;;4.28;3.42;;;;;;;8.17;100.00;101260.94;5033524;28;20404;-85
2022/12/20 03:42:17;;;;;;;7.30;3.47;;;;;;;8.28;100.00;101257.41;5030211;28;20076;-85
2022/12/20 03:44:43;;;;;;;8.98;3.70;;;;;;;8.25;100.00;101262.63;5033498;28;20042;-85
2022/12/20 03:47:08;;;;;;;4.85;3.25;;;;;;;8.26;100.00;101259.13;5033526;28;20075;-85
2022/12/20 03:49:33;;;;;;;7.10;3.33;;;;;;;8.27;100.00;101260.84;5033228;28;20511;-84
2022/12/20 03:51:59;;;;;;;4.57;3.47;;;;;;;8.32;100.00;101261.69;5033901;28;20116;-84
2022/12/20 03:54:24;;;;;;;6.47;3.60;;;;;;;8.41;100.00;101264.25;5033352;28;20029;-84
2022/12/20 03:56:49;;;;;;;7.72;3.28;;;;;;;8.44;100.00;101259.03;5032388;28;20108;-84
2022/12/20 03:59:15;;;;;;;6.47;3.33;;;;;;;8.43;100.00;101250.34;5031785;28;20098;-85
2022/12/20 04:01:40;;;;;;;5.15;3.38;;;;;;;8.43;100.00;101252.09;5032455;28;20539;-85
2022/12/20 04:04:08;;;;;;;5.70;3.08;;;;;;;8.46;100.00;101244.28;5028940;28;20079;-84
2022/12/20 04:06:33;;;;;;;6.85;3.22;;;;;;;8.44;100.00;101241.72;5034320;28;20569;-85
2022/12/20 04:08:58;;;;;;;6.43;3.22;;;;;;;8.50;100.00;101248.59;5031419;28;20116;-84
2022/12/20 04:11:24;;;;;;;4.82;3.45;;;;;;;8.50;100.00;101243.41;5032276;28;20036;-84
2022/12/20 04:13:53;;;;;;;6.95;3.40;;;;;;;8.53;100.00;101250.28;5033215;28;20365;-85
2022/12/20 04:16:21;;;;;;;6.63;3.22;;;;;;;8.51;100.00;101247.72;5033386;28;20021;-84
2022/12/20 04:18:47;;;;;;;6.90;3.58;;;;;;;8.53;100.00;101253.75;5032152;28;20029;-84
2022/12/20 04:21:13;;;;;;;4.20;3.15;;;;;;;8.57;100.00;101252.00;5032868;28;20036;-84
2022/12/20 04:23:40;;;;;;;4.22;3.00;;;;;;;8.58;100.00;101257.19;5031307;28;20029;-84
2022/12/20 04:26:07;;;;;;;4.95;3.20;;;;;;;8.68;100.00;101243.22;5032156;28;20029;-84
2022/12/20 04:28:33;;;;;;;7.72;3.15;;;;;;;8.65;100.00;101232.00;5031117;28;20057;-85
2022/12/20 04:30:59;;;;;;;4.55;2.70;;;;;;;8.71;100.00;101234.53;5033473;28;20109;-84
2022/12/20 04:33:26;;;;;;;5.07;3.10;;;;;;;8.74;100.00;101239.72;5033053;28;20108;-84
2022/12/20 04:35:52;;;;;;;5.85;3.05;;;;;;;8.74;100.00;101233.66;5031000;28;20468;-84
2022/12/20 04:38:19;;;;;;;5.68;2.92;;;;;;;8.77;100.00;101233.63;5033295;28;20108;-84
2022/12/20 04:40:46;;;;;;;7.07;2.95;;;;;;;8.81;100.00;101232.72;5029868;28;20057;-84
2022/12/20 04:43:12;;;;;;;5.53;3.00;;;;;;;8.85;100.00;101229.19;5027499;28;20128;-84
2022/12/20 04:45:37;;;;;;;5.50;3.20;;;;;;;8.85;100.00;101224.84;5085134;23;20132;-85
2022/12/20 04:48:02;;;;;;;4.85;2.80;;;;;;;8.87;100.00;101233.50;5027563;28;20052;-84
2022/12/20 04:50:28;;;;;;;3.92;2.63;;;;;;;8.86;100.00;101230.91;5033772;28;20037;-84
2022/12/20 04:55:38;;;;;;;6.03;3.20;;;;;;;8.90;100.00;101235.22;5032909;28;20099;-84
2022/12/20 04:58:04;;;;;;;4.55;3.55;;;;;;;8.96;100.00;101237.78;5029859;28;20172;-83
2022/12/20 05:00:30;;;;;;;5.15;2.60;;;;;;;8.93;100.00;101237.78;5028210;28;20521;-82
2022/12/20 05:02:55;;;;;;;3.65;2.70;;;;;;;8.92;100.00;101217.84;5046244;28;20026;-82
2022/12/20 05:05:21;;;;;;;4.45;2.70;;;;;;;8.92;100.00;101207.44;5033257;28;20091;-81
2022/12/20 05:07:46;;;;;;;4.53;2.85;;;;;;;9.04;100.00;101220.31;5031349;28;20079;-82
2022/12/20 05:10:11;;;;;;;6.07;3.20;;;;;;;9.03;100.00;101217.75;5033877;28;20029;-82
2022/12/20 05:12:36;;;;;;;5.28;2.95;;;;;;;9.03;100.00;101216.00;5032903;28;20026;-82
2022/12/20 05:15:02;;;;;;;6.15;3.20;;;;;;;8.98;100.00;101199.59;5033866;28;20384;-81
2022/12/20 05:17:27;;;;;;;6.07;2.80;;;;;;;9.02;100.00;101209.06;5032748;28;20152;-81
2022/12/20 05:19:53;;;;;;;4.97;2.65;;;;;;;9.02;100.00;101192.59;5035168;28;20029;-81
2022/12/20 05:27:45;;;;;;;;;;;;;;;9.08;100.00;101188.19;5032319;28;20044;-84
2022/12/20 05:30:11;;;;;;;3.97;2.80;;;;;;;9.04;100.00;101181.31;5033085;28;19917;-83
2022/12/20 05:32:36;;;;;;;4.55;2.80;;;;;;;9.05;100.00;101185.63;5032670;28;20288;-84
2022/12/20 05:35:02;;;;;;;5.80;2.95;;;;;;;9.08;100.00;101188.19;5032940;28;20064;-84
2022/12/20 05:37:27;;;;;;;6.15;2.75;;;;;;;9.10;100.00;101183.00;5033232;28;20397;-84
2022/12/20 05:39:52;;;;;;;4.20;3.00;;;;;;;9.14;100.00;101169.91;5035430;28;20017;-84
2022/12/20 05:42:18;;;;;;;6.38;3.08;;;;;;;9.25;100.00;101179.31;5044224;28;20384;-84
2022/12/20 05:44:43;;;;;;;3.88;2.55;;;;;;;9.19;100.00;101159.47;5031720;28;20037;-84
2022/12/20 05:47:08;;;;;;;4.22;3.03;;;;;;;9.33;100.00;101178.34;5044188;28;20239;-82
2022/12/20 05:49:33;;;;;;;4.05;2.70;;;;;;;9.37;100.00;101171.38;5026283;28;20030;-82
2022/12/20 05:52:00;;;;;;;4.85;2.38;;;;;;;9.36;100.00;101169.66;5051324;28;20025;-82
2022/12/20 05:54:25;;;;;;;6.35;2.83;;;;;;;9.37;100.00;101167.03;5038205;28;20064;-82
2022/12/20 05:56:51;;;;;;;4.47;2.63;;;;;;;9.36;100.00;101165.31;5030683;28;20428;-81
2022/12/20 05:59:16;;;;;;;3.92;2.65;;;;;;;9.37;100.00;101163.56;5032241;28;20575;-82
2022/12/20 06:01:42;;;;;;;4.35;2.63;;;;;;;9.38;100.00;101162.69;5034264;28;20029;-82
2022/12/20 06:04:10;;;;;;;4.10;2.50;;;;;;;9.34;100.00;101153.19;5039501;28;20014;-82
2022/12/20 06:06:35;;;;;;;5.00;2.33;;;;;;;9.28;100.00;101132.47;5039080;28;20060;-82
2022/12/20 06:09:00;;;;;;;3.83;2.78;;;;;;;9.27;100.00;101121.19;5032516;28;20057;-81
2022/12/20 06:11:26;;;;;;;4.10;3.00;;;;;;;9.31;100.00;101120.25;5032524;28;20496;-82
2022/12/20 06:13:51;;;;;;;5.28;2.90;;;;;;;9.29;100.00;101116.00;5044583;28;20040;-82
2022/12/20 06:16:19;;;;;;;4.70;2.53;;;;;;;9.21;100.00;101118.69;5048011;28;20026;-82
2022/12/20 06:18:45;;;;;;;3.88;2.45;;;;;;;9.14;100.00;101101.44;5032300;28;20060;-81
2022/12/20 06:21:10;;;;;;;6.00;2.35;;;;;;;9.18;100.00;101120.47;5031755;28;20045;-81
2022/12/20 06:23:35;;;;;;;3.45;2.28;;;;;;;9.13;100.00;101113.59;5035959;28;20060;-81
2022/12/20 06:26:01;;;;;;;3.38;2.40;;;;;;;9.10;100.00;101108.41;5032249;28;20025;-82
2022/12/20 06:28:26;;;;;;;5.13;2.63;;;;;;;9.11;100.00;101122.28;5032231;28;20030;-82
2022/12/20 06:30:57;;;;;;;3.33;2.20;;;;;;;9.11;100.00;101130.09;5030923;28;20109;-81
2022/12/20 06:33:23;;;;;;;4.10;2.33;;;;;;;9.04;100.00;101128.44;5031517;28;20029;-83
2022/12/20 06:35:49;;;;;;;5.97;3.05;;;;;;;9.11;100.00;101133.53;5031718;28;20029;-82
2022/12/20 06:38:15;;;;;;;2.63;2.20;;;;;;;9.14;100.00;101140.44;5030358;28;20389;-81
2022/12/20 06:40:40;;;;;;;5.22;2.20;;;;;;;9.12;100.00;101124.00;5031309;28;20029;-81
2022/12/20 06:43:05;;;;;;;3.17;2.28;;;;;;;9.09;100.00;101113.63;5030735;28;20506;-82
2022/12/20 06:45:31;;;;;;;4.45;2.10;;;;;;;9.16;100.00;101119.63;5035077;28;20049;-82
2022/12/20 06:47:57;;;;;;;5.13;2.28;;;;;;;9.15;100.00;101126.56;5031804;28;20048;-82
2022/12/20 06:50:22;;;;;;;5.30;2.10;;;;;;;9.12;100.00;101108.38;5051425;28;20047;-81
2022/12/20 06:52:48;;;;;;;3.58;2.08;;;;;;;9.14;100.00;101109.25;5038491;28;20025;-82
2022/12/20 06:55:13;;;;;;;5.35;2.40;;;;;;;9.22;100.00;101125.63;5035974;28;20030;-82
2022/12/20 06:57:38;;;;;;;3.80;2.35;;;;;;;9.28;100.00;101127.25;5042485;28;20029;-82
2022/12/20 07:00:05;;;;;;;3.30;2.50;;;;;;;9.26;100.00;101131.63;5032012;28;20033;-82
2022/12/20 07:02:30;;;;;;;3.58;2.33;;;;;;;9.27;100.00;101118.59;5032199;28;20025;-82
2022/12/20 07:04:55;;;;;;;2.92;2.10;;;;;;;9.35;100.00;101141.91;5031031;28;20040;-82
2022/12/20 07:07:21;;;;;;;5.50;2.55;;;;;;;9.36;100.00;101133.22;5046471;28;20368;-82
2022/12/20 07:09:47;;;;;;;3.58;2.10;;;;;;;9.35;100.00;101115.88;5030171;28;20025;-82
2022/12/20 07:12:12;;;;;;;4.35;2.33;;;;;;;9.38;100.00;101118.44;5030769;28;20465;-82
2022/12/20 07:14:38;;;;;;;3.10;1.80;;;;;;;9.44;100.00;101136.56;5031434;28;20026;-82
2022/12/20 07:17:04;;;;;;;3.88;2.30;;;;;;;9.41;100.00;101127.94;5031214;28;20496;-82
2022/12/20 07:19:30;;;;;;;3.63;2.00;;;;;;;9.49;100.00;101139.97;5037205;28;20017;-82
2022/12/20 07:21:55;;;;;;;3.67;2.10;;;;;;;9.52;100.00;101126.94;5041284;28;20075;-82
2022/12/20 07:24:20;;;;;;;5.30;2.17;;;;;;;9.54;100.00;101130.34;5036039;28;20409;-82
2022/12/20 07:26:46;;;;;;;6.85;1.95;;;;;;;9.51;100.00;101137.34;5031466;28;20029;-82
2022/12/20 07:29:12;;;;;;;6.00;2.03;;;;;;;9.51;100.00;101138.19;5032075;28;20033;-82
2022/12/20 07:31:37;;;;;;;5.00;2.10;;;;;;;9.51;100.00;101137.34;5044887;28;20025;-81
2022/12/20 07:34:03;;;;;;;4.35;2.20;;;;;;;9.52;100.00;101131.28;5044288;28;20036;-81
2022/12/20 07:36:28;;;;;;;3.22;2.10;;;;;;;9.53;100.00;101135.59;5049772;28;20040;-82
2022/12/20 07:38:53;;;;;;;3.33;2.00;;;;;;;9.50;100.00;101144.28;5034932;28;20022;-82
2022/12/20 07:41:19;;;;;;;2.80;2.10;;;;;;;9.55;100.00;101145.09;5039408;28;20041;-82
2022/12/20 07:43:45;;;;;;;4.18;2.17;;;;;;;9.55;100.00;101146.84;5034969;28;20096;-81
2022/12/20 07:46:13;;;;;;;2.72;2.17;;;;;;;9.55;100.00;101145.09;5031282;28;20045;-82
2022/12/20 07:48:38;;;;;;;3.70;2.25;;;;;;;9.60;100.00;101145.88;5034297;28;20036;-81
2022/12/20 07:51:08;;;;;;;5.25;2.45;;;;;;;9.71;100.00;101150.06;5032038;28;20017;-82
2022/12/20 07:53:36;;;;;;;3.15;1.90;;;;;;;9.65;100.00;101145.84;5032468;28;20033;-82
2022/12/20 07:56:03;;;;;;;6.18;1.90;;;;;;;9.63;100.00;101144.13;5036105;28;20559;-81
2022/12/20 07:58:30;;;;;;;3.42;1.92;;;;;;;9.60;100.00;101163.25;5043347;28;20041;-82
2022/12/20 08:00:56;;;;;;;6.60;2.08;;;;;;;9.44;100.00;101152.19;5037127;28;20080;-82
2022/12/20 08:03:27;;;;;;;3.92;1.98;;;;;;;9.42;100.00;101159.19;5042037;28;20036;-81
2022/12/20 08:05:56;;;;;;;5.22;2.35;;;;;;;9.32;100.00;101154.97;5042626;28;20029;-82
2022/12/20 08:08:22;;;;;;;3.65;2.25;;;;;;;9.23;100.00;101174.16;5043874;28;20040;-82
2022/12/20 08:10:49;;;;;;;4.82;2.05;;;;;;;9.10;100.00;101160.44;5032415;28;20052;-82
2022/12/20 08:13:15;;;;;;;3.60;2.40;;;;;;;8.97;100.00;101145.88;5032104;28;20397;-82
2022/12/20 08:15:41;;;;;;;3.30;2.33;;;;;;;8.95;100.00;101147.63;5031951;28;20033;-83
2022/12/20 08:18:06;;;;;;;4.63;2.15;;;;;;;8.89;100.00;101156.38;5030927;28;20388;-83
2022/12/20 08:20:32;;;;;;;5.82;2.38;;;;;;;8.78;100.00;101154.75;5034436;28;20033;-82
2022/12/20 08:22:58;;;;;;;6.63;2.88;;;;;;;8.72;100.00;101147.88;5035486;28;20075;-83
2022/12/20 08:25:24;;;;;;;2.92;2.33;;;;;;;8.75;100.00;101159.97;5034936;28;20033;-83
2022/12/20 08:27:49;;;;;;;6.57;2.58;;;;;;;8.74;100.00;101156.53;5035801;28;20021;-83
2022/12/20 08:30:15;;;;;;;5.85;2.67;;;;;;;8.67;100.00;101153.13;5046737;28;20365;-83
2022/12/20 08:32:40;;;;;;;4.05;2.92;;;;;;;8.67;100.00;101157.47;5033695;28;20038;-84
2022/12/20 08:35:06;;;;;;;6.43;2.85;;;;;;;8.68;100.00;101154.00;5039509;28;20020;-83
2022/12/20 08:37:32;;;;;;;8.73;3.10;;;;;;;8.61;100.00;101158.38;5042988;28;20112;-83
2022/12/20 08:39:59;;;;;;;4.65;3.03;;;;;;;8.64;100.00;101163.56;5033278;28;20029;-84
2022/12/20 08:42:25;;;;;;;6.55;2.85;;;;;;;8.58;100.00;101148.03;5042504;28;20045;-85
2022/12/20 08:44:50;;;;;;;4.43;2.60;;;;;;;8.56;100.00;101144.56;5050354;28;20053;-84
2022/12/20 08:47:15;;;;;;;6.47;2.97;;;;;;;8.58;100.00;101148.03;5031006;28;20532;-84
2022/12/20 08:49:43;;;;;;;6.50;3.20;;;;;;;8.51;100.00;101141.19;5046571;28;20032;-86
2022/12/20 08:52:09;;;;;;;4.93;3.17;;;;;;;8.46;100.00;101123.91;5032591;28;20036;-85
2022/12/20 08:54:34;;;;;;;6.45;3.30;;;;;;;8.51;100.00;101140.31;5036864;28;20029;-86
2022/12/20 08:57:02;;;;;;;4.97;3.45;;;;;;;8.49;100.00;101142.91;5045755;28;20032;-86
2022/12/20 08:59:28;;;;;;;7.60;3.70;;;;;;;8.41;100.00;101126.56;5033864;28;20389;-89
2022/12/20 09:01:53;;;;;;;6.50;3.78;;;;;;;8.42;100.00;101123.94;5045140;28;20028;-87
2022/12/20 09:04:20;;;;;;;8.07;3.90;;;;;;;8.44;100.00;101135.19;5038054;28;20033;-86
2022/12/20 09:06:45;;;;;;;5.78;3.63;;;;;;;8.42;100.00;101126.53;5042509;28;20052;-86
2022/12/20 09:09:12;;;;;;;4.95;3.78;;;;;;;8.35;100.00;101113.59;5035399;28;20103;-87
2022/12/20 09:11:37;;;;;;;7.65;3.65;;;;;;;8.48;100.00;101125.63;5042865;28;20469;-86
2022/12/20 09:14:03;;;;;;;9.73;3.58;;;;;;;8.50;100.00;101116.09;5032816;28;20048;-86
2022/12/20 09:16:31;;;;;;;9.88;3.90;;;;;;;8.54;100.00;101120.34;5046191;28;20100;-86
2022/12/20 09:18:59;;;;;;;8.23;4.72;;;;;;;8.49;100.00;101116.94;5032610;28;20049;-86
2022/12/20 09:21:24;;;;;;;8.73;4.03;;;;;;;8.53;100.00;101113.41;5045877;28;20056;-86
2022/12/20 09:23:51;;;;;;;6.88;3.70;;;;;;;8.63;100.00;101125.47;5032247;28;20025;-89
2022/12/20 09:26:21;;;;;;;8.88;4.10;;;;;;;8.65;100.00;101122.84;5035528;28;20448;-86
2022/12/20 09:28:47;;;;;;;10.55;4.40;;;;;;;8.78;100.00;101127.00;5048530;28;20021;-85
2022/12/20 09:31:14;;;;;;;6.60;4.13;;;;;;;8.85;100.00;101126.06;5030956;28;20029;-86
2022/12/20 09:33:40;;;;;;;7.22;4.22;;;;;;;8.83;100.00;101116.59;5044209;28;20036;-86
2022/12/20 09:36:10;;;;;;;8.77;3.97;;;;;;;8.90;100.00;101121.69;5032884;28;20033;-87
2022/12/20 09:38:35;;;;;;;7.18;3.67;;;;;;;8.94;100.00;101119.03;5038196;28;20491;-84
2022/12/20 09:41:04;;;;;;;5.50;4.00;;;;;;;8.94;100.00;101122.50;5039694;28;20033;-84
2022/12/20 09:43:31;;;;;;;8.63;3.70;;;;;;;8.91;100.00;101119.94;5032458;28;20049;-85
2022/12/20 09:45:59;;;;;;;5.20;3.20;;;;;;;8.90;100.00;101119.06;4993027;28;1090449;-85
2022/12/20 09:48:29;;;;;;;5.53;3.42;;;;;;;8.87;100.00;101128.66;5049762;28;20028;-86
2022/12/20 09:51:06;;;;;;;5.28;3.28;;;;;;;8.84;100.00;101132.16;5053051;28;20025;-85
2022/12/20 09:53:55;;;;;;;6.40;3.60;;;;;;;8.84;100.00;101128.69;5034957;28;20022;-85
2022/12/20 09:56:26;;;;;;;6.45;3.70;;;;;;;8.81;100.00;101121.78;5032463;28;20037;-87
2022/12/20 09:59:02;;;;;;;5.10;3.55;;;;;;;8.77;100.00;101117.50;5032874;28;20033;-87
2022/12/20 10:01:31;;;;;;;6.88;3.90;;;;;;;8.73;100.00;101104.53;5033475;28;20087;-85
2022/12/20 10:03:59;;;;;;;6.97;3.90;;;;;;;8.85;100.00;101122.59;5034187;28;20026;-87
2022/12/20 10:06:46;;;;;;;6.20;3.60;;;;;;;8.86;100.00;101132.13;5053354;28;20059;-87
2022/12/20 10:09:39;;;;;;;5.85;3.25;;;;;;;8.88;100.00;101114.75;5050477;28;20033;-85
2022/12/20 10:12:27;;;;;;;7.28;3.67;;;;;;;8.92;100.00;101111.25;5044396;28;20025;-87
2022/12/20 10:15:19;;;;;;;9.43;3.85;;;;;;;8.98;100.00;101118.13;5036350;28;20027;-85
2022/12/20 10:18:04;;;;;;;5.07;3.45;;;;;;;9.08;100.00;101111.91;5018973;28;20055;-86
2022/12/20 10:20:32;;;;;;;7.32;3.72;;;;;;;9.10;100.00;101115.38;5032638;28;20025;-87
2022/12/20 10:23:00;;;;;;;5.88;3.35;;;;;;;9.12;100.00;101117.06;5046228;28;20595;-86
2022/12/20 10:25:31;;;;;;;9.38;3.28;;;;;;;9.12;100.00;101119.69;5032604;28;20034;-86
2022/12/20 10:28:00;;;;;;;5.88;3.90;;;;;;;9.17;100.00;101121.34;5031841;28;20106;-86
2022/12/20 10:30:27;;;;;;;6.22;3.28;;;;;;;9.17;100.00;101122.22;5026650;28;20026;-85
2022/12/20 10:32:55;;;;;;;8.93;3.53;;;;;;;9.11;100.00;101107.53;5017611;28;20489;-87
2022/12/20 10:35:33;;;;;;;6.28;3.55;;;;;;;9.14;100.00;101127.44;5044053;28;20033;-86
2022/12/20 10:38:11;;;;;;;7.15;3.63;;;;;;;9.10;100.00;101120.56;5047477;28;20021;-86
2022/12/20 10:40:40;;;;;;;6.63;4.00;;;;;;;9.08;100.00;101122.31;5052732;28;20021;-86
2022/12/20 10:43:12;;;;;;;8.15;4.90;;;;;;;8.98;100.00;101102.50;5036279;28;20429;-86
2022/12/20 10:45:40;;;;;;;9.00;4.93;;;;;;;9.05;100.00;101112.81;5040755;28;20182;-86
2022/12/20 10:48:25;;;;;;;9.85;4.68;;;;;;;9.05;100.00;101112.81;5037158;28;20065;-86
2022/12/20 10:51:11;;;;;;;11.10;4.43;;;;;;;9.02;100.00;101096.38;5039111;28;20021;-87
2022/12/20 10:53:59;;;;;;;12.23;4.45;;;;;;;9.01;100.00;101095.53;5033530;28;20545;-85
2022/12/20 10:56:29;;;;;;;13.18;4.68;;;;;;;9.01;100.00;101103.34;5040344;28;20029;-86
2022/12/20 10:58:57;;;;;;;9.30;5.10;;;;;;;9.01;100.00;101100.72;5051860;28;20535;-85
2022/12/20 11:01:42;;;;;;;9.73;4.75;;;;;;;8.96;100.00;101081.75;5040209;28;20041;-87
2022/12/20 11:08:23;;;;;;;10.02;5.55;;;;;;;8.97;100.00;101093.84;5054913;28;20052;-85
2022/12/20 11:51:40;;;;;;;11.45;6.65;;;;;;;8.92;100.00;101033.25;4993837;28;20057;-81
2022/12/20 11:54:29;;;;;;;11.15;6.82;;;;;;;8.79;100.00;101016.09;5002814;28;20091;-81
2022/12/20 11:57:21;;;;;;;17.23;7.68;;;;;;;9.09;100.00;101062.50;5054621;28;20056;-80
2022/12/20 11:59:53;;;;;;;13.93;6.78;;;;;;;8.99;100.00;101029.69;5034321;28;20045;-81
2022/12/20 12:02:46;;;;;;;16.88;7.80;;;;;;;9.17;100.00;101058.91;5055251;28;20017;-80
2022/12/20 12:05:20;;;;;;;11.85;7.13;;;;;;;9.16;100.00;101046.81;5049746;28;20041;-81
2022/12/20 12:07:51;;;;;;;10.82;7.45;;;;;;;9.16;100.00;101036.41;5051782;28;20025;-81
2022/12/20 12:10:28;;;;;;;17.77;8.48;;;;;;;9.15;100.00;101035.50;5053869;28;20072;-81
2022/12/20 12:13:09;;;;;;;14.35;7.68;;;;;;;9.26;100.00;101051.00;5053026;28;20079;-81
2022/12/20 12:16:11;;;;;;;14.68;7.60;;;;;;;9.31;100.00;101046.56;5048342;28;20457;-81
2022/12/20 12:18:38;;;;;;;13.27;7.50;;;;;;;9.26;100.00;101036.25;5052368;28;20073;-80
2022/12/20 12:21:04;;;;;;;14.30;7.72;;;;;;;9.31;100.00;101046.56;5052814;28;20483;-80
2022/12/20 12:23:44;;;;;;;15.18;8.18;;;;;;;9.28;100.00;101037.06;5054904;28;20029;-80
2022/12/20 12:26:17;;;;;;;14.15;7.50;;;;;;;9.26;100.00;101038.84;5053962;28;20040;-81